createdAt,value
2023-04-13T00:00:43.039Z,2.78
2023-04-13T00:03:12.421Z,2.33
2023-04-13T00:05:40.049Z,2.70
2023-04-13T00:08:07.364Z,2.60
2023-04-13T00:10:36.312Z,2.30
2023-04-13T00:13:05.066Z,2.67
2023-04-13T00:15:32.451Z,2.80
2023-04-13T00:17:59.675Z,2.40
2023-04-13T00:20:26.933Z,2.50
2023-04-13T00:22:54.265Z,2.70
2023-04-13T00:25:21.455Z,2.45
2023-04-13T00:27:50.303Z,2.80
2023-04-13T00:30:18.816Z,2.72
2023-04-13T00:32:46.086Z,2.80
2023-04-13T00:35:18.528Z,2.70
2023-04-13T00:37:46.986Z,2.78
2023-04-13T00:40:15.908Z,2.75
2023-04-13T00:42:43.814Z,2.42
2023-04-13T00:45:12.047Z,2.67
2023-04-13T00:47:41.610Z,3.10
2023-04-13T00:50:09.041Z,2.70
2023-04-13T00:52:38.120Z,2.92
2023-04-13T00:55:06.169Z,2.80
2023-04-13T00:57:33.469Z,3.20
2023-04-13T01:00:00.665Z,2.75
2023-04-13T01:02:27.878Z,2.40
2023-04-13T01:04:57.419Z,2.90
2023-04-13T01:07:26.573Z,2.13
2023-04-13T01:09:56.561Z,3.30
2023-04-13T01:12:26.304Z,2.90
2023-04-13T01:14:55.986Z,2.83
2023-04-13T01:17:25.565Z,3.20
2023-04-13T01:19:53.751Z,1.98
2023-04-13T01:22:23.317Z,2.50
2023-04-13T01:24:54.325Z,3.05
2023-04-13T01:27:25.590Z,2.67
2023-04-13T01:29:56.807Z,2.70
2023-04-13T01:32:24.016Z,2.38
2023-04-13T01:34:51.185Z,2.58
2023-04-13T01:37:18.484Z,2.83
2023-04-13T01:39:47.334Z,2.40
2023-04-13T01:42:15.583Z,2.38
2023-04-13T01:44:42.839Z,2.47
2023-04-13T01:47:16.241Z,2.38
2023-04-13T01:49:44.720Z,2.20
2023-04-13T01:52:12.014Z,2.20
2023-04-13T01:54:39.498Z,2.42
2023-04-13T01:57:06.760Z,2.05
2023-04-13T01:59:33.979Z,2.15
2023-04-13T02:02:01.219Z,1.90
2023-04-13T02:04:30.080Z,2.22
2023-04-13T02:06:57.280Z,2.28
2023-04-13T02:09:24.461Z,1.95
2023-04-13T02:11:51.807Z,2.03
2023-04-13T02:14:18.998Z,1.73
2023-04-13T02:16:46.542Z,1.90
2023-04-13T02:19:14.705Z,1.63
2023-04-13T02:21:43.256Z,1.70
2023-04-13T02:24:10.455Z,1.83
2023-04-13T02:26:38.114Z,1.48
2023-04-13T02:29:05.504Z,1.67
2023-04-13T02:31:33.680Z,1.55
2023-04-13T02:34:01.131Z,1.70
2023-04-13T02:36:28.521Z,1.80
2023-04-13T02:38:57.031Z,1.80
2023-04-13T02:41:24.915Z,1.52
2023-04-13T02:43:52.284Z,1.48
2023-04-13T02:46:19.831Z,1.60
2023-04-13T02:48:47.041Z,1.50
2023-04-13T02:51:14.279Z,1.50
2023-04-13T02:53:41.478Z,1.40
2023-04-13T02:56:10.596Z,1.42
2023-04-13T02:58:37.780Z,1.58
2023-04-13T03:01:05.174Z,1.38
2023-04-13T03:03:33.095Z,1.35
2023-04-13T03:06:01.312Z,1.73
2023-04-13T03:08:28.539Z,1.48
2023-04-13T03:10:55.744Z,1.40
2023-04-13T03:13:24.237Z,1.48
2023-04-13T03:15:52.705Z,1.60
2023-04-13T03:18:19.889Z,1.52
2023-04-13T03:20:47.093Z,1.25
2023-04-13T03:23:14.746Z,1.13
2023-04-13T03:25:41.997Z,1.25
2023-04-13T03:28:09.244Z,1.30
2023-04-13T03:30:37.763Z,1.30
2023-04-13T03:33:05.114Z,1.30
2023-04-13T03:35:32.356Z,1.20
2023-04-13T03:37:59.917Z,1.13
2023-04-13T03:40:27.450Z,1.13
2023-04-13T03:42:54.685Z,1.20
2023-04-13T03:45:21.870Z,1.13
2023-04-13T03:47:50.637Z,1.13
2023-04-13T03:50:18.221Z,1.17
2023-04-13T03:52:45.426Z,1.20
2023-04-13T03:55:13.566Z,0.88
2023-04-13T03:57:40.852Z,1.02
2023-04-13T04:00:11.586Z,1.10
2023-04-13T04:02:39.251Z,1.08
2023-04-13T04:05:08.433Z,0.95
2023-04-13T04:07:35.758Z,0.90
2023-04-13T04:10:02.973Z,1.00
2023-04-13T04:12:30.168Z,1.10
2023-04-13T04:14:57.347Z,1.10
2023-04-13T04:17:24.628Z,1.13
2023-04-13T04:19:52.017Z,1.08
2023-04-13T04:22:20.583Z,0.98
2023-04-13T04:24:47.775Z,1.10
2023-04-13T04:27:15.497Z,0.93
2023-04-13T04:29:48.995Z,1.05
2023-04-13T04:32:18.521Z,0.90
2023-04-13T04:34:46.595Z,0.93
2023-04-13T04:37:20.414Z,0.80
2023-04-13T04:39:49.527Z,0.73
2023-04-13T04:42:18.531Z,0.80
2023-04-13T04:44:49.864Z,0.90
2023-04-13T04:47:17.720Z,0.90
2023-04-13T04:49:44.921Z,0.82
2023-04-13T04:52:12.588Z,0.80
2023-04-13T04:54:39.861Z,1.00
2023-04-13T04:57:10.304Z,0.85
2023-04-13T04:59:37.610Z,0.93
2023-04-13T05:02:04.847Z,0.85
2023-04-13T05:04:33.394Z,0.75
2023-04-13T05:07:00.884Z,0.90
2023-04-13T05:09:28.077Z,0.80
2023-04-13T05:11:56.238Z,0.90
2023-04-13T05:14:24.756Z,0.80
2023-04-13T05:16:52.059Z,0.80
2023-04-13T05:19:19.282Z,0.80
2023-04-13T05:21:46.488Z,1.00
2023-04-13T05:24:13.692Z,1.00
2023-04-13T05:26:40.908Z,0.82
2023-04-13T05:29:08.478Z,0.80
2023-04-13T05:31:37.008Z,0.80
2023-04-13T05:34:04.209Z,0.70
2023-04-13T05:36:32.159Z,0.88
2023-04-13T05:38:59.677Z,1.10
2023-04-13T05:41:27.403Z,1.20
2023-04-13T05:43:54.629Z,1.50
2023-04-13T05:46:21.909Z,2.10
2023-04-13T05:48:50.437Z,1.73
2023-04-13T05:51:17.661Z,1.70
2023-04-13T05:53:45.409Z,1.48
2023-04-13T05:56:12.631Z,1.50
2023-04-13T05:58:39.917Z,1.60
2023-04-13T06:01:08.981Z,1.45
2023-04-13T06:03:36.408Z,1.52
2023-04-13T06:06:05.636Z,1.83
2023-04-13T06:08:33.199Z,2.38
2023-04-13T06:11:00.786Z,2.38
2023-04-13T06:13:27.981Z,2.10
2023-04-13T06:15:55.189Z,2.33
2023-04-13T06:18:22.384Z,1.90
2023-04-13T06:20:49.578Z,7.82
2023-04-13T06:23:18.072Z,30.95
2023-04-13T06:25:45.904Z,54.78
2023-04-13T06:28:13.131Z,49.70
2023-04-13T06:30:40.637Z,48.78
2023-04-13T06:33:08.116Z,45.30
2023-04-13T06:35:36.159Z,45.42
2023-04-13T06:38:03.826Z,42.85
2023-04-13T06:40:33.188Z,33.55
2023-04-13T06:43:00.453Z,32.42
2023-04-13T06:45:27.654Z,31.98
2023-04-13T06:47:54.870Z,28.67
2023-04-13T06:50:22.250Z,27.35
2023-04-13T06:52:49.967Z,26.95
2023-04-13T06:55:17.404Z,26.15
2023-04-13T06:57:45.978Z,18.90
2023-04-13T07:00:28.851Z,16.80
2023-04-13T07:02:56.665Z,16.25
2023-04-13T07:05:24.120Z,17.08
2023-04-13T07:07:51.635Z,16.42
2023-04-13T07:10:18.948Z,13.70
2023-04-13T07:12:47.488Z,15.05
2023-04-13T07:15:14.773Z,13.73
2023-04-13T07:17:42.076Z,14.73
2023-04-13T07:20:09.888Z,13.35
2023-04-13T07:22:37.114Z,13.20
2023-04-13T07:25:05.465Z,13.20
2023-04-13T07:27:33.041Z,10.90
2023-04-13T07:30:02.089Z,11.48
2023-04-13T07:32:31.352Z,11.07
2023-04-13T07:35:01.482Z,11.50
2023-04-13T07:37:29.572Z,10.57
2023-04-13T07:39:56.790Z,10.80
2023-04-13T07:42:23.977Z,10.35
2023-04-13T07:44:52.438Z,10.05
2023-04-13T07:47:20.942Z,8.88
2023-04-13T07:49:48.213Z,8.75
2023-04-13T07:52:15.434Z,9.00
2023-04-13T07:54:42.664Z,9.38
2023-04-13T07:57:09.867Z,25.75
2023-04-13T07:59:37.310Z,13.90
2023-04-13T08:02:05.503Z,22.45
2023-04-13T08:04:34.183Z,22.77
2023-04-13T08:07:03.390Z,20.25
2023-04-13T08:09:32.857Z,19.65
2023-04-13T08:12:00.037Z,18.60
2023-04-13T08:14:27.234Z,20.15
2023-04-13T08:16:54.591Z,19.55
2023-04-13T08:19:21.876Z,18.10
2023-04-13T08:21:50.430Z,17.85
2023-04-13T08:24:17.619Z,18.55
2023-04-13T08:26:45.489Z,16.38
2023-04-13T08:29:13.862Z,15.30
2023-04-13T08:31:41.396Z,14.50
2023-04-13T08:34:10.317Z,15.90
2023-04-13T08:36:37.818Z,14.07
2023-04-13T08:39:09.549Z,14.10
2023-04-13T08:41:39.217Z,13.57
2023-04-13T08:44:08.488Z,12.98
2023-04-13T08:46:35.899Z,12.38
2023-04-13T08:49:03.089Z,11.73
2023-04-13T08:51:31.229Z,10.55
2023-04-13T08:53:59.098Z,9.68
2023-04-13T08:56:41.936Z,9.23
2023-04-13T08:59:12.309Z,9.20
2023-04-13T09:01:39.639Z,9.02
2023-04-13T09:04:08.023Z,8.30
2023-04-13T09:06:36.126Z,8.77
2023-04-13T09:09:05.719Z,8.00
2023-04-13T09:11:34.259Z,8.75
2023-04-13T09:14:01.570Z,7.60
2023-04-13T09:16:28.824Z,7.70
2023-04-13T09:18:56.454Z,7.22
2023-04-13T09:21:23.697Z,6.38
2023-04-13T09:23:54.670Z,7.00
2023-04-13T09:26:22.683Z,6.72
2023-04-13T09:28:52.845Z,5.90
2023-04-13T09:31:21.003Z,6.30
2023-04-13T09:33:48.616Z,5.57
2023-04-13T09:36:16.312Z,3.50
2023-04-13T09:38:43.780Z,4.63
2023-04-13T09:41:11.004Z,3.95
2023-04-13T09:43:38.454Z,3.83
2023-04-13T09:46:12.160Z,4.00
2023-04-13T09:48:39.386Z,3.78
2023-04-13T09:51:07.059Z,3.63
2023-04-13T09:53:40.372Z,3.38
2023-04-13T09:56:07.835Z,3.50
2023-04-13T09:58:36.983Z,3.55
2023-04-13T10:01:04.400Z,3.20
2023-04-13T10:03:34.587Z,3.00
2023-04-13T10:10:59.835Z,4.30
2023-04-13T10:13:27.990Z,4.50
2023-04-13T10:16:00.986Z,4.32
2023-04-13T10:18:30.965Z,3.47
2023-04-13T10:20:59.616Z,3.80
2023-04-13T10:23:27.182Z,3.20
2023-04-13T10:25:54.487Z,3.10
2023-04-13T10:28:26.171Z,3.35
2023-04-13T10:30:53.720Z,3.22
2023-04-13T10:33:20.987Z,2.83
2023-04-13T10:35:58.277Z,3.08
2023-04-13T10:38:27.494Z,3.30
2023-04-13T10:40:54.722Z,3.10
2023-04-13T10:43:26.069Z,3.20
2023-04-13T10:46:05.011Z,3.15
2023-04-13T10:50:58.305Z,2.67
2023-04-13T10:53:30.218Z,2.70
2023-04-13T10:55:57.465Z,2.90
2023-04-13T10:58:24.683Z,2.83
2023-04-13T11:00:52.189Z,2.67
2023-04-13T11:03:19.851Z,2.55
2023-04-13T11:05:47.653Z,2.35
2023-04-13T11:08:18.663Z,2.40
2023-04-13T11:10:52.311Z,2.30
2023-04-13T11:13:19.551Z,2.30
2023-04-13T11:15:46.784Z,2.08
2023-04-13T11:18:14.061Z,2.08
2023-04-13T11:20:41.448Z,2.25
2023-04-13T11:23:15.987Z,2.00
2023-04-13T11:25:55.892Z,2.20
2023-04-13T11:28:23.219Z,2.10
2023-04-13T11:30:55.394Z,2.00
2023-04-13T11:33:26.615Z,1.90
2023-04-13T11:35:54.298Z,2.15
2023-04-13T11:38:21.474Z,1.85
2023-04-13T11:40:48.829Z,1.60
2023-04-13T11:43:17.703Z,2.03
2023-04-13T11:45:45.018Z,2.03
2023-04-13T11:48:12.264Z,2.03
2023-04-13T11:50:39.769Z,1.65
2023-04-13T11:53:07.242Z,1.60
2023-04-13T11:55:46.091Z,1.80
2023-04-13T11:58:21.723Z,1.40
2023-04-13T12:00:49.138Z,1.60
2023-04-13T12:05:47.193Z,1.55
2023-04-13T12:08:21.409Z,1.30
2023-04-13T12:13:35.919Z,1.60
2023-04-13T12:16:11.651Z,1.55
2023-04-13T12:18:44.261Z,1.38
2023-04-13T12:21:13.820Z,1.40
2023-04-13T12:23:41.576Z,1.30
2023-04-13T12:26:39.984Z,1.55
2023-04-13T12:28:57.823Z,1.52
2023-04-13T12:31:25.322Z,1.83
2023-04-13T12:33:52.518Z,1.30
2023-04-13T12:36:19.768Z,1.40
2023-04-13T12:38:46.972Z,1.60
2023-04-13T12:41:14.174Z,1.45
2023-04-13T12:43:41.364Z,1.20
2023-04-13T12:46:09.915Z,1.20
2023-04-13T12:48:37.172Z,1.30
2023-04-13T12:51:04.577Z,1.40
2023-04-13T12:53:31.787Z,1.27
2023-04-13T12:55:58.995Z,1.40
2023-04-13T12:58:26.225Z,1.33
2023-04-13T13:00:53.496Z,1.17
2023-04-13T13:03:23.330Z,1.52
2023-04-13T13:05:50.630Z,1.35
2023-04-13T13:08:17.828Z,1.38
2023-04-13T13:10:45.253Z,1.40
2023-04-13T13:13:16.924Z,1.20
2023-04-13T13:15:44.119Z,1.42
2023-04-13T13:18:11.404Z,1.60
2023-04-13T13:20:41.357Z,1.40
2023-04-13T13:25:37.984Z,1.50
2023-04-13T13:30:41.547Z,1.30
2023-04-13T13:33:08.808Z,1.27
2023-04-13T13:35:36.210Z,1.50
2023-04-13T13:38:04.735Z,1.23
2023-04-13T13:40:31.947Z,1.17
2023-04-13T13:42:59.289Z,1.30
2023-04-13T13:45:26.510Z,1.23
2023-04-13T13:47:54.142Z,1.40
2023-04-13T13:50:22.077Z,1.48
2023-04-13T13:53:02.490Z,1.30
2023-04-13T13:55:32.575Z,1.40
2023-04-13T13:57:59.759Z,1.40
2023-04-13T14:00:27.139Z,1.30
2023-04-13T14:02:54.621Z,1.30
2023-04-13T14:05:22.196Z,1.40
2023-04-13T14:07:49.464Z,1.42
2023-04-13T14:10:16.703Z,1.42
2023-04-13T14:12:47.403Z,1.58
2023-04-13T14:15:16.312Z,1.42
2023-04-13T14:17:43.565Z,1.58
2023-04-13T14:20:11.839Z,1.30
2023-04-13T14:22:39.175Z,1.48
2023-04-13T14:25:06.886Z,1.40
2023-04-13T14:27:34.154Z,1.48
2023-04-13T14:30:02.919Z,1.40
2023-04-13T14:32:30.203Z,1.27
2023-04-13T14:34:57.714Z,1.40
2023-04-13T14:37:24.954Z,1.60
2023-04-13T14:39:52.729Z,1.48
2023-04-13T14:42:19.928Z,1.40
2023-04-13T14:44:47.128Z,1.60
2023-04-13T14:47:16.384Z,1.50
2023-04-13T14:49:43.775Z,1.42
2023-04-13T14:52:11.358Z,1.40
2023-04-13T14:54:38.696Z,1.85
2023-04-13T14:57:05.908Z,1.40
2023-04-13T14:59:33.097Z,1.25
2023-04-13T15:02:01.144Z,1.50
2023-04-13T15:04:30.020Z,1.98
2023-04-13T15:06:57.336Z,1.50
2023-04-13T15:09:24.519Z,1.58
2023-04-13T15:11:51.857Z,1.52
2023-04-13T15:14:19.039Z,1.48
2023-04-13T15:16:46.410Z,1.50
2023-04-13T15:19:13.673Z,1.63
2023-04-13T15:21:42.434Z,1.65
2023-04-13T15:24:09.688Z,1.40
2023-04-13T15:26:38.491Z,1.88
2023-04-13T15:29:05.696Z,1.60
2023-04-13T15:31:33.284Z,1.70
2023-04-13T15:34:00.878Z,1.70
2023-04-13T15:36:28.466Z,1.55
2023-04-13T15:38:56.978Z,1.50
2023-04-13T15:41:26.873Z,1.60
2023-04-13T15:43:54.630Z,1.75
2023-04-13T15:46:21.872Z,1.73
2023-04-13T15:48:50.324Z,1.60
2023-04-13T15:51:17.609Z,1.60
2023-04-13T15:53:44.837Z,1.70
2023-04-13T15:56:13.400Z,1.40
2023-04-13T15:58:40.633Z,1.52
2023-04-13T16:01:08.297Z,1.77
2023-04-13T16:03:35.981Z,1.60
2023-04-13T16:06:03.602Z,1.50
2023-04-13T16:08:31.085Z,1.60
2023-04-13T16:10:58.352Z,1.92
2023-04-13T16:13:37.819Z,1.70
2023-04-13T16:16:15.145Z,1.55
2023-04-13T16:18:42.492Z,1.52
2023-04-13T16:21:10.663Z,1.73
2023-04-13T16:23:38.120Z,1.60
2023-04-13T16:26:06.216Z,1.70
2023-04-13T16:28:34.774Z,1.40
2023-04-13T16:31:02.057Z,1.60
2023-04-13T16:33:29.717Z,1.52
2023-04-13T16:35:56.911Z,1.77
2023-04-13T16:38:24.089Z,1.50
2023-04-13T16:40:51.676Z,1.58
2023-04-13T16:43:18.907Z,1.85
2023-04-13T16:45:47.421Z,1.58
2023-04-13T16:48:14.618Z,1.55
2023-04-13T16:50:41.813Z,1.80
2023-04-13T16:53:09.029Z,1.58
2023-04-13T16:55:36.218Z,1.63
2023-04-13T16:58:03.403Z,1.48
2023-04-13T17:00:30.650Z,1.52
2023-04-13T17:02:59.314Z,2.00
2023-04-13T17:05:28.421Z,1.55
2023-04-13T17:07:55.692Z,1.63
2023-04-13T17:10:23.028Z,1.63
2023-04-13T17:12:50.375Z,1.80
2023-04-13T17:15:19.259Z,1.90
2023-04-13T17:17:46.524Z,1.88
2023-04-13T17:20:16.931Z,1.50
2023-04-13T17:22:44.552Z,1.70
2023-04-13T17:25:12.020Z,1.58
2023-04-13T17:27:39.226Z,1.77
2023-04-13T17:30:07.403Z,1.75
2023-04-13T17:32:34.836Z,1.70
2023-04-13T17:35:02.085Z,1.50
2023-04-13T17:37:30.857Z,1.80
2023-04-13T17:39:58.037Z,1.60
2023-04-13T17:42:25.266Z,1.90
2023-04-13T17:44:52.465Z,1.52
2023-04-13T17:47:19.689Z,1.88
2023-04-13T17:49:46.898Z,1.77
2023-04-13T17:52:14.105Z,1.95
2023-04-13T17:54:42.638Z,1.70
2023-04-13T17:57:09.894Z,1.77
2023-04-13T17:59:37.126Z,1.70
2023-04-13T18:02:04.427Z,1.77
2023-04-13T18:04:31.748Z,1.75
2023-04-13T18:06:59.097Z,1.92
2023-04-13T18:09:27.960Z,1.83
2023-04-13T18:11:56.498Z,1.77
2023-04-13T18:14:23.691Z,1.90
2023-04-13T18:16:50.909Z,1.88
2023-04-13T18:19:18.116Z,1.63
2023-04-13T18:21:45.460Z,1.50
2023-04-13T18:24:12.658Z,1.35
2023-04-13T18:26:39.864Z,1.73
2023-04-13T18:29:08.477Z,1.45
2023-04-13T18:31:35.774Z,1.80
2023-04-13T18:34:03.104Z,1.70
2023-04-13T18:36:30.891Z,1.90
2023-04-13T18:38:58.119Z,1.92
2023-04-13T18:41:25.340Z,1.80
2023-04-13T18:43:52.581Z,1.67
2023-04-13T18:46:21.297Z,1.88
2023-04-13T18:48:48.540Z,1.65
2023-04-13T18:51:15.810Z,1.50
2023-04-13T18:53:43.020Z,1.60
2023-04-13T18:56:10.264Z,1.80
2023-04-13T18:58:37.462Z,1.92
2023-04-13T19:01:04.675Z,1.90
2023-04-13T19:03:33.281Z,1.50
2023-04-13T19:06:01.033Z,2.10
2023-04-13T19:08:28.241Z,1.92
2023-04-13T19:10:55.423Z,1.63
2023-04-13T19:13:22.627Z,1.63
2023-04-13T19:15:49.893Z,1.80
2023-04-13T19:18:17.133Z,1.92
2023-04-13T19:20:45.738Z,2.10
2023-04-13T19:23:12.926Z,1.90
2023-04-13T19:25:40.330Z,2.17
2023-04-13T19:28:07.830Z,2.22
2023-04-13T19:30:35.032Z,1.85
2023-04-13T19:33:02.679Z,2.00
2023-04-13T19:35:30.032Z,1.90
2023-04-13T19:37:58.561Z,1.95
2023-04-13T19:40:27.174Z,2.00
2023-04-13T19:42:54.393Z,2.17
2023-04-13T19:45:21.602Z,2.10
2023-04-13T19:47:48.821Z,2.00
2023-04-13T19:50:16.461Z,2.00
2023-04-13T19:52:43.701Z,1.80
2023-04-13T19:55:12.198Z,1.75
2023-04-13T19:57:41.969Z,1.95
2023-04-13T20:00:16.932Z,1.90
2023-04-13T20:02:44.781Z,1.88
2023-04-13T20:05:12.070Z,1.90
2023-04-13T20:07:39.315Z,2.00
2023-04-13T20:10:07.148Z,2.33
2023-04-13T20:12:35.646Z,2.20
2023-04-13T20:15:03.563Z,2.00
2023-04-13T20:17:30.878Z,2.78
2023-04-13T20:19:59.957Z,2.80
2023-04-13T20:22:27.305Z,2.60
2023-04-13T20:24:54.471Z,2.50
2023-04-13T20:27:22.638Z,2.80
2023-04-13T20:29:51.519Z,2.35
2023-04-13T20:32:18.754Z,2.20
2023-04-13T20:34:45.972Z,2.20
2023-04-13T20:37:14.190Z,2.45
2023-04-13T20:39:49.763Z,2.63
2023-04-13T20:42:17.924Z,2.30
2023-04-13T20:44:45.808Z,2.33
2023-04-13T20:47:14.343Z,2.30
2023-04-13T20:49:43.690Z,2.25
2023-04-13T20:52:13.803Z,2.10
2023-04-13T20:57:09.272Z,2.67
2023-04-13T20:59:37.168Z,2.15
2023-04-13T21:02:04.572Z,2.10
2023-04-13T21:04:33.164Z,2.50
2023-04-13T21:07:02.273Z,2.25
2023-04-13T21:09:29.968Z,2.40
2023-04-13T21:11:57.494Z,2.42
2023-04-13T21:14:24.949Z,2.70
2023-04-13T21:16:52.487Z,2.65
2023-04-13T21:19:19.789Z,2.70
2023-04-13T21:21:48.288Z,2.60
2023-04-13T21:24:15.697Z,2.65
2023-04-13T21:26:42.924Z,2.40
2023-04-13T21:29:10.869Z,2.55
2023-04-13T21:31:38.148Z,2.30
2023-04-13T21:34:05.374Z,2.40
2023-04-13T21:39:04.424Z,2.50
2023-04-13T21:41:31.619Z,2.47
2023-04-13T21:43:58.824Z,2.65
2023-04-13T21:46:26.319Z,2.40
2023-04-13T21:48:53.559Z,2.47
2023-04-13T21:51:20.962Z,2.33
2023-04-13T21:53:48.253Z,2.50
2023-04-13T21:56:16.746Z,2.35
2023-04-13T21:58:44.438Z,2.47
2023-04-13T22:01:12.682Z,2.38
2023-04-13T22:03:41.976Z,2.58
2023-04-13T22:06:10.492Z,2.30
2023-04-13T22:08:37.770Z,2.33
2023-04-13T22:11:05.253Z,2.30
2023-04-13T22:13:33.786Z,2.47
2023-04-13T22:16:01.131Z,2.30
2023-04-13T22:18:28.419Z,2.58
2023-04-13T22:20:55.642Z,2.70
2023-04-13T22:23:22.918Z,2.25
2023-04-13T22:25:54.138Z,2.60
2023-04-13T22:28:21.370Z,2.35
2023-04-13T22:30:51.712Z,2.40
2023-04-13T22:33:18.924Z,2.40
2023-04-13T22:35:46.142Z,2.53
2023-04-13T22:38:13.333Z,2.47
2023-04-13T22:40:40.799Z,2.40
2023-04-13T22:43:08.021Z,2.60
2023-04-13T22:45:35.217Z,2.53
2023-04-13T22:48:03.912Z,2.65
2023-04-13T22:50:31.135Z,2.83
2023-04-13T22:52:58.344Z,2.50
2023-04-13T22:55:25.573Z,2.47
2023-04-13T22:57:52.773Z,2.22
2023-04-13T23:00:20.847Z,2.60
2023-04-13T23:02:50.244Z,2.30
2023-04-13T23:05:19.035Z,2.42
2023-04-13T23:07:46.244Z,2.33
2023-04-13T23:10:15.273Z,2.90
2023-04-13T23:12:43.758Z,2.70
2023-04-13T23:15:11.945Z,2.20
2023-04-13T23:17:39.272Z,2.53
2023-04-13T23:20:07.286Z,2.97
2023-04-13T23:22:35.802Z,2.67
2023-04-13T23:25:03.032Z,2.72
2023-04-13T23:27:30.221Z,2.65
2023-04-13T23:29:57.455Z,2.92
2023-04-13T23:32:25.312Z,2.90
2023-04-13T23:34:52.705Z,2.55
2023-04-13T23:37:20.996Z,2.50
2023-04-13T23:39:49.526Z,2.50
2023-04-13T23:42:16.960Z,3.00
2023-04-13T23:44:44.141Z,2.45
2023-04-13T23:47:11.331Z,2.63
2023-04-13T23:49:38.551Z,2.58
2023-04-13T23:52:07.420Z,2.80
2023-04-13T23:54:34.718Z,2.47
2023-04-13T23:57:03.399Z,2.47
2023-04-13T23:59:30.611Z,2.55
